sensor_id;sensor_type;location;lat;lon;timestamp;P1;durP1;ratioP1;P2;durP2;ratioP2
14770;SDS011;7477;45.222;5.688;2023-04-06T00:02:46;5.93;;;3.05;;
14770;SDS011;7477;45.222;5.688;2023-04-06T00:06:05;5.38;;;2.88;;
14770;SDS011;7477;45.222;5.688;2023-04-06T00:09:25;4.55;;;2.95;;
14770;SDS011;7477;45.222;5.688;2023-04-06T00:12:45;3.67;;;2.75;;
14770;SDS011;7477;45.222;5.688;2023-04-06T00:16:04;6.72;;;3.30;;
14770;SDS011;7477;45.222;5.688;2023-04-06T00:19:24;4.13;;;2.65;;
14770;SDS011;7477;45.222;5.688;2023-04-06T00:22:44;6.47;;;2.60;;
14770;SDS011;7477;45.222;5.688;2023-04-06T00:26:03;4.10;;;2.80;;
14770;SDS011;7477;45.222;5.688;2023-04-06T00:29:23;3.38;;;2.55;;
14770;SDS011;7477;45.222;5.688;2023-04-06T00:32:42;3.38;;;2.30;;
14770;SDS011;7477;45.222;5.688;2023-04-06T00:36:01;4.30;;;2.90;;
14770;SDS011;7477;45.222;5.688;2023-04-06T00:39:21;5.13;;;2.75;;
14770;SDS011;7477;45.222;5.688;2023-04-06T00:42:40;5.32;;;2.95;;
14770;SDS011;7477;45.222;5.688;2023-04-06T00:46:00;4.65;;;2.75;;
14770;SDS011;7477;45.222;5.688;2023-04-06T00:49:19;2.97;;;2.60;;
14770;SDS011;7477;45.222;5.688;2023-04-06T00:52:38;3.70;;;2.53;;
14770;SDS011;7477;45.222;5.688;2023-04-06T00:55:57;6.88;;;2.97;;
14770;SDS011;7477;45.222;5.688;2023-04-06T00:59:17;5.13;;;2.70;;
14770;SDS011;7477;45.222;5.688;2023-04-06T01:02:36;4.78;;;2.92;;
14770;SDS011;7477;45.222;5.688;2023-04-06T01:05:56;3.45;;;2.67;;
14770;SDS011;7477;45.222;5.688;2023-04-06T01:09:16;5.47;;;3.05;;
14770;SDS011;7477;45.222;5.688;2023-04-06T01:12:36;3.30;;;3.00;;
14770;SDS011;7477;45.222;5.688;2023-04-06T01:15:57;4.75;;;3.30;;
14770;SDS011;7477;45.222;5.688;2023-04-06T01:19:17;4.55;;;3.00;;
14770;SDS011;7477;45.222;5.688;2023-04-06T01:22:36;5.72;;;3.63;;
14770;SDS011;7477;45.222;5.688;2023-04-06T01:25:55;4.60;;;3.10;;
14770;SDS011;7477;45.222;5.688;2023-04-06T01:29:14;4.97;;;3.20;;
14770;SDS011;7477;45.222;5.688;2023-04-06T01:32:33;5.70;;;3.45;;
14770;SDS011;7477;45.222;5.688;2023-04-06T01:35:53;4.45;;;3.33;;
14770;SDS011;7477;45.222;5.688;2023-04-06T01:39:12;4.40;;;3.08;;
14770;SDS011;7477;45.222;5.688;2023-04-06T01:42:31;4.78;;;3.28;;
14770;SDS011;7477;45.222;5.688;2023-04-06T01:45:50;3.67;;;2.58;;
14770;SDS011;7477;45.222;5.688;2023-04-06T01:49:09;3.75;;;2.85;;
14770;SDS011;7477;45.222;5.688;2023-04-06T01:52:29;4.47;;;2.97;;
14770;SDS011;7477;45.222;5.688;2023-04-06T01:55:48;3.92;;;3.08;;
14770;SDS011;7477;45.222;5.688;2023-04-06T01:59:08;3.30;;;3.00;;
14770;SDS011;7477;45.222;5.688;2023-04-06T02:02:27;5.22;;;3.17;;
14770;SDS011;7477;45.222;5.688;2023-04-06T02:05:46;4.55;;;2.95;;
14770;SDS011;7477;45.222;5.688;2023-04-06T02:09:05;2.83;;;2.40;;
14770;SDS011;7477;45.222;5.688;2023-04-06T02:12:24;4.47;;;2.75;;
14770;SDS011;7477;45.222;5.688;2023-04-06T02:15:44;3.67;;;2.72;;
14770;SDS011;7477;45.222;5.688;2023-04-06T02:19:03;4.80;;;2.70;;
14770;SDS011;7477;45.222;5.688;2023-04-06T02:22:22;3.58;;;2.58;;
14770;SDS011;7477;45.222;5.688;2023-04-06T02:25:42;2.55;;;2.35;;
14770;SDS011;7477;45.222;5.688;2023-04-06T02:29:02;4.38;;;3.10;;
14770;SDS011;7477;45.222;5.688;2023-04-06T02:32:21;3.17;;;2.58;;
14770;SDS011;7477;45.222;5.688;2023-04-06T02:35:40;3.10;;;2.67;;
14770;SDS011;7477;45.222;5.688;2023-04-06T02:38:59;4.80;;;2.67;;
14770;SDS011;7477;45.222;5.688;2023-04-06T02:42:18;7.05;;;2.88;;
14770;SDS011;7477;45.222;5.688;2023-04-06T02:45:38;4.43;;;3.13;;
14770;SDS011;7477;45.222;5.688;2023-04-06T02:48:57;3.88;;;2.88;;
14770;SDS011;7477;45.222;5.688;2023-04-06T02:52:18;4.50;;;3.08;;
14770;SDS011;7477;45.222;5.688;2023-04-06T02:55:38;4.40;;;3.15;;
14770;SDS011;7477;45.222;5.688;2023-04-06T02:58:57;4.07;;;2.90;;
14770;SDS011;7477;45.222;5.688;2023-04-06T03:02:16;4.55;;;3.00;;
14770;SDS011;7477;45.222;5.688;2023-04-06T03:05:36;4.53;;;2.93;;
14770;SDS011;7477;45.222;5.688;2023-04-06T03:08:55;4.53;;;2.88;;
14770;SDS011;7477;45.222;5.688;2023-04-06T03:12:14;5.70;;;2.95;;
14770;SDS011;7477;45.222;5.688;2023-04-06T03:15:34;4.40;;;2.67;;
14770;SDS011;7477;45.222;5.688;2023-04-06T03:18:53;5.47;;;3.50;;
14770;SDS011;7477;45.222;5.688;2023-04-06T03:22:12;5.53;;;3.25;;
14770;SDS011;7477;45.222;5.688;2023-04-06T03:25:31;4.93;;;3.47;;
14770;SDS011;7477;45.222;5.688;2023-04-06T03:28:50;3.80;;;3.40;;
14770;SDS011;7477;45.222;5.688;2023-04-06T03:32:10;7.38;;;4.05;;
14770;SDS011;7477;45.222;5.688;2023-04-06T03:35:29;6.37;;;4.30;;
14770;SDS011;7477;45.222;5.688;2023-04-06T03:38:48;8.13;;;5.13;;
14770;SDS011;7477;45.222;5.688;2023-04-06T03:42:07;9.43;;;5.43;;
14770;SDS011;7477;45.222;5.688;2023-04-06T03:45:27;11.47;;;5.93;;
14770;SDS011;7477;45.222;5.688;2023-04-06T03:48:48;11.43;;;6.93;;
14770;SDS011;7477;45.222;5.688;2023-04-06T03:52:08;12.10;;;7.22;;
14770;SDS011;7477;45.222;5.688;2023-04-06T03:55:28;14.55;;;8.63;;
14770;SDS011;7477;45.222;5.688;2023-04-06T03:58:47;16.08;;;7.75;;
14770;SDS011;7477;45.222;5.688;2023-04-06T04:02:09;14.98;;;7.13;;
14770;SDS011;7477;45.222;5.688;2023-04-06T04:05:28;13.55;;;8.63;;
14770;SDS011;7477;45.222;5.688;2023-04-06T04:08:47;15.02;;;7.10;;
14770;SDS011;7477;45.222;5.688;2023-04-06T04:12:06;9.30;;;5.30;;
14770;SDS011;7477;45.222;5.688;2023-04-06T04:15:26;5.83;;;4.27;;
14770;SDS011;7477;45.222;5.688;2023-04-06T04:18:45;6.33;;;4.00;;
14770;SDS011;7477;45.222;5.688;2023-04-06T04:22:06;6.77;;;4.07;;
14770;SDS011;7477;45.222;5.688;2023-04-06T04:25:25;5.35;;;4.30;;
14770;SDS011;7477;45.222;5.688;2023-04-06T04:28:44;8.65;;;4.13;;
14770;SDS011;7477;45.222;5.688;2023-04-06T04:32:04;7.50;;;4.70;;
14770;SDS011;7477;45.222;5.688;2023-04-06T04:35:24;7.50;;;4.20;;
14770;SDS011;7477;45.222;5.688;2023-04-06T04:38:43;5.15;;;4.18;;
14770;SDS011;7477;45.222;5.688;2023-04-06T04:42:03;8.65;;;4.30;;
14770;SDS011;7477;45.222;5.688;2023-04-06T04:45:22;6.90;;;3.83;;
14770;SDS011;7477;45.222;5.688;2023-04-06T04:48:41;5.35;;;3.97;;
14770;SDS011;7477;45.222;5.688;2023-04-06T04:52:01;6.13;;;4.07;;
14770;SDS011;7477;45.222;5.688;2023-04-06T04:55:20;4.83;;;3.83;;
14770;SDS011;7477;45.222;5.688;2023-04-06T04:58:40;6.97;;;4.20;;
14770;SDS011;7477;45.222;5.688;2023-04-06T05:01:59;6.47;;;3.80;;
14770;SDS011;7477;45.222;5.688;2023-04-06T05:05:18;5.73;;;4.00;;
14770;SDS011;7477;45.222;5.688;2023-04-06T05:08:37;5.87;;;3.77;;
14770;SDS011;7477;45.222;5.688;2023-04-06T05:11:57;5.67;;;3.70;;
14770;SDS011;7477;45.222;5.688;2023-04-06T05:15:17;6.90;;;4.17;;
14770;SDS011;7477;45.222;5.688;2023-04-06T05:18:36;5.10;;;3.83;;
14770;SDS011;7477;45.222;5.688;2023-04-06T05:21:55;5.87;;;4.20;;
14770;SDS011;7477;45.222;5.688;2023-04-06T05:25:15;12.67;;;4.80;;
14770;SDS011;7477;45.222;5.688;2023-04-06T05:28:34;6.63;;;4.47;;
14770;SDS011;7477;45.222;5.688;2023-04-06T05:31:54;4.87;;;4.03;;
14770;SDS011;7477;45.222;5.688;2023-04-06T05:35:13;4.43;;;3.47;;
14770;SDS011;7477;45.222;5.688;2023-04-06T05:38:33;6.63;;;3.33;;
14770;SDS011;7477;45.222;5.688;2023-04-06T05:41:52;6.27;;;3.20;;
14770;SDS011;7477;45.222;5.688;2023-04-06T05:45:12;9.43;;;6.67;;
14770;SDS011;7477;45.222;5.688;2023-04-06T05:48:37;7.27;;;5.10;;
14770;SDS011;7477;45.222;5.688;2023-04-06T05:51:56;6.07;;;4.60;;
14770;SDS011;7477;45.222;5.688;2023-04-06T05:55:15;8.40;;;5.40;;
14770;SDS011;7477;45.222;5.688;2023-04-06T05:58:35;6.90;;;4.90;;
14770;SDS011;7477;45.222;5.688;2023-04-06T06:01:54;7.47;;;4.80;;
14770;SDS011;7477;45.222;5.688;2023-04-06T06:05:13;6.07;;;4.87;;
14770;SDS011;7477;45.222;5.688;2023-04-06T06:08:32;7.80;;;5.07;;
14770;SDS011;7477;45.222;5.688;2023-04-06T06:11:52;8.63;;;5.63;;
14770;SDS011;7477;45.222;5.688;2023-04-06T06:15:11;8.97;;;5.03;;
14770;SDS011;7477;45.222;5.688;2023-04-06T06:18:31;8.07;;;5.77;;
14770;SDS011;7477;45.222;5.688;2023-04-06T06:21:50;8.10;;;5.85;;
14770;SDS011;7477;45.222;5.688;2023-04-06T06:25:10;8.85;;;5.90;;
14770;SDS011;7477;45.222;5.688;2023-04-06T06:28:29;8.65;;;5.97;;
14770;SDS011;7477;45.222;5.688;2023-04-06T06:31:48;12.90;;;6.18;;
14770;SDS011;7477;45.222;5.688;2023-04-06T06:35:08;8.02;;;6.03;;
14770;SDS011;7477;45.222;5.688;2023-04-06T06:38:27;12.85;;;6.30;;
14770;SDS011;7477;45.222;5.688;2023-04-06T06:41:46;10.30;;;6.05;;
14770;SDS011;7477;45.222;5.688;2023-04-06T06:45:06;10.23;;;5.72;;
14770;SDS011;7477;45.222;5.688;2023-04-06T06:48:26;9.02;;;5.65;;
14770;SDS011;7477;45.222;5.688;2023-04-06T06:51:46;10.80;;;6.65;;
14770;SDS011;7477;45.222;5.688;2023-04-06T06:55:05;8.45;;;5.35;;
14770;SDS011;7477;45.222;5.688;2023-04-06T06:58:24;8.52;;;5.82;;
14770;SDS011;7477;45.222;5.688;2023-04-06T07:01:44;8.00;;;6.20;;
14770;SDS011;7477;45.222;5.688;2023-04-06T07:05:04;7.28;;;5.70;;
14770;SDS011;7477;45.222;5.688;2023-04-06T07:08:24;8.98;;;5.90;;
14770;SDS011;7477;45.222;5.688;2023-04-06T07:11:43;8.90;;;5.03;;
14770;SDS011;7477;45.222;5.688;2023-04-06T07:15:03;5.57;;;4.38;;
14770;SDS011;7477;45.222;5.688;2023-04-06T07:18:23;7.78;;;5.15;;
14770;SDS011;7477;45.222;5.688;2023-04-06T07:21:43;10.10;;;4.70;;
14770;SDS011;7477;45.222;5.688;2023-04-06T07:25:03;6.50;;;4.57;;
14770;SDS011;7477;45.222;5.688;2023-04-06T07:28:23;5.40;;;4.15;;
14770;SDS011;7477;45.222;5.688;2023-04-06T07:31:42;5.80;;;4.38;;
14770;SDS011;7477;45.222;5.688;2023-04-06T07:35:02;6.40;;;4.85;;
14770;SDS011;7477;45.222;5.688;2023-04-06T07:38:21;9.18;;;5.47;;
14770;SDS011;7477;45.222;5.688;2023-04-06T07:41:41;6.40;;;4.63;;
14770;SDS011;7477;45.222;5.688;2023-04-06T07:45:00;7.22;;;4.78;;
14770;SDS011;7477;45.222;5.688;2023-04-06T07:48:19;14.65;;;5.18;;
14770;SDS011;7477;45.222;5.688;2023-04-06T07:51:39;10.45;;;5.40;;
14770;SDS011;7477;45.222;5.688;2023-04-06T07:54:58;5.80;;;4.60;;
14770;SDS011;7477;45.222;5.688;2023-04-06T07:58:17;5.80;;;4.80;;
14770;SDS011;7477;45.222;5.688;2023-04-06T08:01:36;7.95;;;5.70;;
14770;SDS011;7477;45.222;5.688;2023-04-06T08:04:56;8.27;;;5.20;;
14770;SDS011;7477;45.222;5.688;2023-04-06T08:08:16;8.73;;;5.15;;
14770;SDS011;7477;45.222;5.688;2023-04-06T08:11:35;13.38;;;5.68;;
14770;SDS011;7477;45.222;5.688;2023-04-06T08:14:54;6.60;;;5.18;;
14770;SDS011;7477;45.222;5.688;2023-04-06T08:18:14;7.90;;;4.57;;
14770;SDS011;7477;45.222;5.688;2023-04-06T08:21:33;8.65;;;4.72;;
14770;SDS011;7477;45.222;5.688;2023-04-06T08:24:53;7.45;;;5.63;;
14770;SDS011;7477;45.222;5.688;2023-04-06T08:28:12;8.68;;;4.65;;
14770;SDS011;7477;45.222;5.688;2023-04-06T08:31:31;6.47;;;4.50;;
14770;SDS011;7477;45.222;5.688;2023-04-06T08:34:52;6.43;;;4.82;;
14770;SDS011;7477;45.222;5.688;2023-04-06T08:38:12;8.90;;;4.90;;
14770;SDS011;7477;45.222;5.688;2023-04-06T08:41:32;6.97;;;4.70;;
14770;SDS011;7477;45.222;5.688;2023-04-06T08:44:53;6.70;;;4.13;;
14770;SDS011;7477;45.222;5.688;2023-04-06T08:48:14;11.13;;;4.30;;
14770;SDS011;7477;45.222;5.688;2023-04-06T08:51:34;7.00;;;3.83;;
14770;SDS011;7477;45.222;5.688;2023-04-06T08:54:55;5.30;;;2.50;;
14770;SDS011;7477;45.222;5.688;2023-04-06T08:58:15;3.15;;;2.10;;
14770;SDS011;7477;45.222;5.688;2023-04-06T09:01:36;4.68;;;3.72;;
14770;SDS011;7477;45.222;5.688;2023-04-06T09:04:59;5.28;;;3.42;;
14770;SDS011;7477;45.222;5.688;2023-04-06T09:08:19;5.45;;;2.40;;
14770;SDS011;7477;45.222;5.688;2023-04-06T09:11:46;5.57;;;3.90;;
14770;SDS011;7477;45.222;5.688;2023-04-06T09:15:17;5.45;;;4.00;;
14770;SDS011;7477;45.222;5.688;2023-04-06T09:18:38;4.50;;;3.13;;
14770;SDS011;7477;45.222;5.688;2023-04-06T09:22:05;3.50;;;3.20;;
14770;SDS011;7477;45.222;5.688;2023-04-06T09:25:27;4.55;;;3.42;;
14770;SDS011;7477;45.222;5.688;2023-04-06T09:28:52;6.43;;;4.03;;
14770;SDS011;7477;45.222;5.688;2023-04-06T09:32:12;4.85;;;3.55;;
14770;SDS011;7477;45.222;5.688;2023-04-06T09:35:35;8.30;;;3.92;;
14770;SDS011;7477;45.222;5.688;2023-04-06T09:38:58;13.90;;;8.55;;
14770;SDS011;7477;45.222;5.688;2023-04-06T09:42:24;7.60;;;4.22;;
14770;SDS011;7477;45.222;5.688;2023-04-06T09:45:46;7.05;;;4.15;;
14770;SDS011;7477;45.222;5.688;2023-04-06T09:49:06;6.85;;;4.68;;
14770;SDS011;7477;45.222;5.688;2023-04-06T09:52:27;5.65;;;3.65;;
14770;SDS011;7477;45.222;5.688;2023-04-06T09:55:55;4.28;;;3.80;;
14770;SDS011;7477;45.222;5.688;2023-04-06T09:59:39;6.78;;;4.00;;
14770;SDS011;7477;45.222;5.688;2023-04-06T10:03:14;8.48;;;4.18;;
14770;SDS011;7477;45.222;5.688;2023-04-06T10:06:48;7.93;;;5.28;;
14770;SDS011;7477;45.222;5.688;2023-04-06T10:10:11;4.95;;;3.88;;
14770;SDS011;7477;45.222;5.688;2023-04-06T10:13:33;7.80;;;4.53;;
14770;SDS011;7477;45.222;5.688;2023-04-06T10:16:52;7.25;;;4.10;;
14770;SDS011;7477;45.222;5.688;2023-04-06T10:20:13;5.45;;;4.07;;
14770;SDS011;7477;45.222;5.688;2023-04-06T10:23:41;8.30;;;5.75;;
14770;SDS011;7477;45.222;5.688;2023-04-06T10:27:04;5.95;;;4.50;;
14770;SDS011;7477;45.222;5.688;2023-04-06T10:30:25;9.63;;;4.70;;
14770;SDS011;7477;45.222;5.688;2023-04-06T10:33:53;10.07;;;4.80;;
14770;SDS011;7477;45.222;5.688;2023-04-06T10:37:16;7.80;;;5.05;;
14770;SDS011;7477;45.222;5.688;2023-04-06T10:40:37;8.50;;;4.30;;
14770;SDS011;7477;45.222;5.688;2023-04-06T10:43:58;5.38;;;4.10;;
14770;SDS011;7477;45.222;5.688;2023-04-06T10:47:18;12.10;;;5.18;;
14770;SDS011;7477;45.222;5.688;2023-04-06T10:50:37;8.25;;;4.97;;
14770;SDS011;7477;45.222;5.688;2023-04-06T10:53:59;7.53;;;4.28;;
14770;SDS011;7477;45.222;5.688;2023-04-06T10:57:27;7.95;;;5.38;;
14770;SDS011;7477;45.222;5.688;2023-04-06T11:00:48;8.50;;;4.93;;
14770;SDS011;7477;45.222;5.688;2023-04-06T11:04:08;7.53;;;4.78;;
14770;SDS011;7477;45.222;5.688;2023-04-06T11:07:31;6.13;;;4.30;;
14770;SDS011;7477;45.222;5.688;2023-04-06T11:10:51;8.23;;;4.72;;
14770;SDS011;7477;45.222;5.688;2023-04-06T11:14:11;7.65;;;4.95;;
14770;SDS011;7477;45.222;5.688;2023-04-06T11:17:30;6.35;;;4.50;;
14770;SDS011;7477;45.222;5.688;2023-04-06T11:20:50;8.07;;;5.00;;
14770;SDS011;7477;45.222;5.688;2023-04-06T11:24:20;5.95;;;4.05;;
14770;SDS011;7477;45.222;5.688;2023-04-06T11:27:41;7.80;;;4.50;;
14770;SDS011;7477;45.222;5.688;2023-04-06T11:31:01;5.82;;;4.07;;
14770;SDS011;7477;45.222;5.688;2023-04-06T11:34:21;8.13;;;4.55;;
14770;SDS011;7477;45.222;5.688;2023-04-06T11:37:42;6.18;;;4.35;;
14770;SDS011;7477;45.222;5.688;2023-04-06T11:41:01;7.38;;;4.28;;
14770;SDS011;7477;45.222;5.688;2023-04-06T11:44:34;6.90;;;4.55;;
14770;SDS011;7477;45.222;5.688;2023-04-06T11:47:57;6.70;;;4.50;;
14770;SDS011;7477;45.222;5.688;2023-04-06T11:51:22;8.13;;;4.72;;
14770;SDS011;7477;45.222;5.688;2023-04-06T11:54:45;9.80;;;4.72;;
14770;SDS011;7477;45.222;5.688;2023-04-06T11:58:05;6.80;;;4.47;;
14770;SDS011;7477;45.222;5.688;2023-04-06T12:01:25;5.18;;;4.32;;
14770;SDS011;7477;45.222;5.688;2023-04-06T12:04:45;12.45;;;4.85;;
14770;SDS011;7477;45.222;5.688;2023-04-06T12:08:04;7.97;;;4.60;;
14770;SDS011;7477;45.222;5.688;2023-04-06T12:11:24;7.70;;;4.60;;
14770;SDS011;7477;45.222;5.688;2023-04-06T12:14:43;6.72;;;4.43;;
14770;SDS011;7477;45.222;5.688;2023-04-06T12:18:03;8.13;;;4.90;;
14770;SDS011;7477;45.222;5.688;2023-04-06T12:21:22;7.13;;;4.47;;
14770;SDS011;7477;45.222;5.688;2023-04-06T12:24:42;6.47;;;4.72;;
14770;SDS011;7477;45.222;5.688;2023-04-06T12:28:01;8.30;;;4.13;;
14770;SDS011;7477;45.222;5.688;2023-04-06T12:31:20;7.78;;;4.22;;
14770;SDS011;7477;45.222;5.688;2023-04-06T12:34:40;6.07;;;4.38;;
14770;SDS011;7477;45.222;5.688;2023-04-06T12:38:00;7.65;;;3.50;;
14770;SDS011;7477;45.222;5.688;2023-04-06T12:41:19;6.72;;;3.63;;
14770;SDS011;7477;45.222;5.688;2023-04-06T12:44:39;5.40;;;3.75;;
14770;SDS011;7477;45.222;5.688;2023-04-06T12:47:58;7.20;;;3.30;;
14770;SDS011;7477;45.222;5.688;2023-04-06T12:51:18;6.50;;;3.80;;
14770;SDS011;7477;45.222;5.688;2023-04-06T12:54:38;6.18;;;3.53;;
14770;SDS011;7477;45.222;5.688;2023-04-06T12:57:57;5.63;;;3.53;;
14770;SDS011;7477;45.222;5.688;2023-04-06T13:01:16;4.97;;;3.30;;
14770;SDS011;7477;45.222;5.688;2023-04-06T13:04:36;4.28;;;3.20;;
14770;SDS011;7477;45.222;5.688;2023-04-06T13:07:55;6.65;;;3.33;;
14770;SDS011;7477;45.222;5.688;2023-04-06T13:11:15;7.65;;;3.63;;
14770;SDS011;7477;45.222;5.688;2023-04-06T13:14:35;5.40;;;3.45;;
14770;SDS011;7477;45.222;5.688;2023-04-06T13:17:55;4.45;;;3.42;;
14770;SDS011;7477;45.222;5.688;2023-04-06T13:21:15;5.00;;;3.50;;
14770;SDS011;7477;45.222;5.688;2023-04-06T13:24:35;6.20;;;3.53;;
14770;SDS011;7477;45.222;5.688;2023-04-06T13:27:54;6.03;;;2.80;;
14770;SDS011;7477;45.222;5.688;2023-04-06T13:31:14;3.55;;;2.60;;
14770;SDS011;7477;45.222;5.688;2023-04-06T13:34:33;4.75;;;3.08;;
14770;SDS011;7477;45.222;5.688;2023-04-06T13:37:53;4.15;;;2.72;;
14770;SDS011;7477;45.222;5.688;2023-04-06T13:41:21;5.22;;;2.85;;
14770;SDS011;7477;45.222;5.688;2023-04-06T13:44:41;4.15;;;3.05;;
14770;SDS011;7477;45.222;5.688;2023-04-06T13:48:00;4.32;;;2.80;;
14770;SDS011;7477;45.222;5.688;2023-04-06T13:51:19;3.63;;;2.72;;
14770;SDS011;7477;45.222;5.688;2023-04-06T13:54:39;5.60;;;2.67;;
14770;SDS011;7477;45.222;5.688;2023-04-06T13:57:58;7.70;;;2.92;;
14770;SDS011;7477;45.222;5.688;2023-04-06T14:01:17;9.25;;;2.85;;
14770;SDS011;7477;45.222;5.688;2023-04-06T14:04:37;4.15;;;2.58;;
14770;SDS011;7477;45.222;5.688;2023-04-06T14:07:56;6.03;;;2.30;;
14770;SDS011;7477;45.222;5.688;2023-04-06T14:11:16;6.22;;;2.30;;
14770;SDS011;7477;45.222;5.688;2023-04-06T14:14:35;7.32;;;2.88;;
14770;SDS011;7477;45.222;5.688;2023-04-06T14:17:54;4.80;;;1.80;;
14770;SDS011;7477;45.222;5.688;2023-04-06T14:21:14;2.53;;;1.95;;
14770;SDS011;7477;45.222;5.688;2023-04-06T14:24:33;2.58;;;2.30;;
14770;SDS011;7477;45.222;5.688;2023-04-06T14:27:54;4.88;;;2.10;;
14770;SDS011;7477;45.222;5.688;2023-04-06T14:31:13;5.28;;;2.22;;
14770;SDS011;7477;45.222;5.688;2023-04-06T14:34:36;4.15;;;2.45;;
14770;SDS011;7477;45.222;5.688;2023-04-06T14:37:56;2.63;;;1.90;;
14770;SDS011;7477;45.222;5.688;2023-04-06T14:41:17;4.95;;;2.47;;
14770;SDS011;7477;45.222;5.688;2023-04-06T14:44:38;3.38;;;2.10;;
14770;SDS011;7477;45.222;5.688;2023-04-06T14:48:01;3.35;;;2.28;;
14770;SDS011;7477;45.222;5.688;2023-04-06T14:51:20;4.57;;;2.50;;
14770;SDS011;7477;45.222;5.688;2023-04-06T14:54:40;9.65;;;2.70;;
14770;SDS011;7477;45.222;5.688;2023-04-06T14:58:00;2.47;;;1.70;;
14770;SDS011;7477;45.222;5.688;2023-04-06T15:01:19;2.78;;;2.10;;
14770;SDS011;7477;45.222;5.688;2023-04-06T15:04:39;5.47;;;2.00;;
14770;SDS011;7477;45.222;5.688;2023-04-06T15:07:59;1.92;;;1.50;;
14770;SDS011;7477;45.222;5.688;2023-04-06T15:11:18;1.75;;;1.60;;
14770;SDS011;7477;45.222;5.688;2023-04-06T15:14:38;2.30;;;1.65;;
14770;SDS011;7477;45.222;5.688;2023-04-06T15:17:57;2.33;;;1.50;;
14770;SDS011;7477;45.222;5.688;2023-04-06T15:21:18;1.30;;;1.20;;
14770;SDS011;7477;45.222;5.688;2023-04-06T15:24:38;1.15;;;1.05;;
14770;SDS011;7477;45.222;5.688;2023-04-06T15:27:58;2.53;;;1.60;;
14770;SDS011;7477;45.222;5.688;2023-04-06T15:31:17;2.10;;;1.70;;
14770;SDS011;7477;45.222;5.688;2023-04-06T15:34:39;1.77;;;1.58;;
14770;SDS011;7477;45.222;5.688;2023-04-06T15:37:58;1.90;;;1.40;;
14770;SDS011;7477;45.222;5.688;2023-04-06T15:41:18;2.50;;;1.50;;
14770;SDS011;7477;45.222;5.688;2023-04-06T15:44:38;1.67;;;1.17;;
14770;SDS011;7477;45.222;5.688;2023-04-06T15:47:58;1.48;;;1.23;;
14770;SDS011;7477;45.222;5.688;2023-04-06T15:51:17;2.10;;;1.27;;
14770;SDS011;7477;45.222;5.688;2023-04-06T15:54:36;3.65;;;1.50;;
14770;SDS011;7477;45.222;5.688;2023-04-06T15:57:58;1.38;;;1.27;;
14770;SDS011;7477;45.222;5.688;2023-04-06T16:01:18;1.60;;;1.40;;
14770;SDS011;7477;45.222;5.688;2023-04-06T16:04:38;1.80;;;1.20;;
14770;SDS011;7477;45.222;5.688;2023-04-06T16:07:57;1.30;;;1.13;;
14770;SDS011;7477;45.222;5.688;2023-04-06T16:11:16;1.10;;;1.08;;
14770;SDS011;7477;45.222;5.688;2023-04-06T16:14:35;1.50;;;1.17;;
14770;SDS011;7477;45.222;5.688;2023-04-06T16:17:55;3.30;;;1.50;;
14770;SDS011;7477;45.222;5.688;2023-04-06T16:21:15;1.77;;;1.10;;
14770;SDS011;7477;45.222;5.688;2023-04-06T16:24:36;1.27;;;1.17;;
14770;SDS011;7477;45.222;5.688;2023-04-06T16:27:55;2.45;;;0.90;;
14770;SDS011;7477;45.222;5.688;2023-04-06T16:31:21;1.20;;;1.10;;
14770;SDS011;7477;45.222;5.688;2023-04-06T16:34:41;1.20;;;1.10;;
14770;SDS011;7477;45.222;5.688;2023-04-06T16:38:00;1.65;;;1.13;;
14770;SDS011;7477;45.222;5.688;2023-04-06T16:41:19;2.38;;;2.17;;
14770;SDS011;7477;45.222;5.688;2023-04-06T16:44:39;1.42;;;1.20;;
14770;SDS011;7477;45.222;5.688;2023-04-06T16:47:58;2.88;;;1.42;;
14770;SDS011;7477;45.222;5.688;2023-04-06T16:51:17;1.05;;;0.95;;
14770;SDS011;7477;45.222;5.688;2023-04-06T16:54:37;2.03;;;1.67;;
14770;SDS011;7477;45.222;5.688;2023-04-06T16:57:56;2.78;;;1.50;;
14770;SDS011;7477;45.222;5.688;2023-04-06T17:04:39;3.65;;;2.20;;
14770;SDS011;7477;45.222;5.688;2023-04-06T17:07:58;14.10;;;7.28;;
14770;SDS011;7477;45.222;5.688;2023-04-06T17:11:18;3.35;;;2.03;;
14770;SDS011;7477;45.222;5.688;2023-04-06T17:14:38;1.20;;;1.10;;
14770;SDS011;7477;45.222;5.688;2023-04-06T17:17:58;4.50;;;3.08;;
14770;SDS011;7477;45.222;5.688;2023-04-06T17:21:17;2.05;;;1.40;;
14770;SDS011;7477;45.222;5.688;2023-04-06T17:24:38;2.55;;;1.38;;
14770;SDS011;7477;45.222;5.688;2023-04-06T17:27:57;1.38;;;1.13;;
14770;SDS011;7477;45.222;5.688;2023-04-06T17:31:17;3.72;;;1.30;;
14770;SDS011;7477;45.222;5.688;2023-04-06T17:34:36;1.10;;;1.00;;
14770;SDS011;7477;45.222;5.688;2023-04-06T17:37:55;3.58;;;1.10;;
14770;SDS011;7477;45.222;5.688;2023-04-06T17:41:14;1.63;;;1.40;;
14770;SDS011;7477;45.222;5.688;2023-04-06T17:44:34;2.30;;;1.73;;
14770;SDS011;7477;45.222;5.688;2023-04-06T17:47:54;3.95;;;1.65;;
14770;SDS011;7477;45.222;5.688;2023-04-06T17:51:13;4.40;;;2.10;;
14770;SDS011;7477;45.222;5.688;2023-04-06T17:54:36;5.43;;;2.40;;
14770;SDS011;7477;45.222;5.688;2023-04-06T17:57:55;1.98;;;1.70;;
14770;SDS011;7477;45.222;5.688;2023-04-06T18:01:14;6.70;;;3.95;;
14770;SDS011;7477;45.222;5.688;2023-04-06T18:04:33;5.63;;;3.47;;
14770;SDS011;7477;45.222;5.688;2023-04-06T18:07:53;4.30;;;2.72;;
14770;SDS011;7477;45.222;5.688;2023-04-06T18:11:14;5.72;;;3.80;;
14770;SDS011;7477;45.222;5.688;2023-04-06T18:14:40;6.63;;;3.58;;
14770;SDS011;7477;45.222;5.688;2023-04-06T18:18:00;2.80;;;2.50;;
14770;SDS011;7477;45.222;5.688;2023-04-06T18:21:19;7.72;;;2.72;;
14770;SDS011;7477;45.222;5.688;2023-04-06T18:24:39;3.00;;;2.45;;
14770;SDS011;7477;45.222;5.688;2023-04-06T18:27:58;4.10;;;1.60;;
14770;SDS011;7477;45.222;5.688;2023-04-06T18:31:17;2.42;;;1.10;;
14770;SDS011;7477;45.222;5.688;2023-04-06T18:34:39;2.25;;;1.52;;
14770;SDS011;7477;45.222;5.688;2023-04-06T18:37:59;1.85;;;1.52;;
14770;SDS011;7477;45.222;5.688;2023-04-06T18:41:18;2.45;;;1.40;;
14770;SDS011;7477;45.222;5.688;2023-04-06T18:44:40;2.28;;;1.30;;
14770;SDS011;7477;45.222;5.688;2023-04-06T18:47:59;1.10;;;1.00;;
14770;SDS011;7477;45.222;5.688;2023-04-06T18:51:18;5.50;;;2.83;;
14770;SDS011;7477;45.222;5.688;2023-04-06T18:54:40;1.85;;;1.33;;
14770;SDS011;7477;45.222;5.688;2023-04-06T18:58:00;2.42;;;1.63;;
14770;SDS011;7477;45.222;5.688;2023-04-06T19:01:29;2.03;;;1.63;;
14770;SDS011;7477;45.222;5.688;2023-04-06T19:04:50;3.20;;;1.85;;
14770;SDS011;7477;45.222;5.688;2023-04-06T19:08:09;5.18;;;2.65;;
14770;SDS011;7477;45.222;5.688;2023-04-06T19:11:30;2.45;;;1.85;;
14770;SDS011;7477;45.222;5.688;2023-04-06T19:14:50;2.78;;;1.90;;
14770;SDS011;7477;45.222;5.688;2023-04-06T19:18:10;2.33;;;1.75;;
14770;SDS011;7477;45.222;5.688;2023-04-06T19:21:29;4.70;;;2.20;;
14770;SDS011;7477;45.222;5.688;2023-04-06T19:24:49;3.30;;;2.80;;
14770;SDS011;7477;45.222;5.688;2023-04-06T19:28:08;3.83;;;2.10;;
14770;SDS011;7477;45.222;5.688;2023-04-06T19:31:28;4.13;;;1.90;;
14770;SDS011;7477;45.222;5.688;2023-04-06T19:34:47;3.63;;;2.75;;
14770;SDS011;7477;45.222;5.688;2023-04-06T19:38:07;8.98;;;5.80;;
14770;SDS011;7477;45.222;5.688;2023-04-06T19:41:26;1.92;;;1.73;;
14770;SDS011;7477;45.222;5.688;2023-04-06T19:44:46;3.53;;;2.60;;
14770;SDS011;7477;45.222;5.688;2023-04-06T19:48:05;1.98;;;1.48;;
14770;SDS011;7477;45.222;5.688;2023-04-06T19:51:25;5.05;;;2.85;;
14770;SDS011;7477;45.222;5.688;2023-04-06T19:54:50;3.30;;;2.25;;
14770;SDS011;7477;45.222;5.688;2023-04-06T19:58:09;4.97;;;3.90;;
14770;SDS011;7477;45.222;5.688;2023-04-06T20:01:28;4.15;;;2.10;;
14770;SDS011;7477;45.222;5.688;2023-04-06T20:04:47;2.67;;;1.67;;
14770;SDS011;7477;45.222;5.688;2023-04-06T20:08:06;9.02;;;6.72;;
14770;SDS011;7477;45.222;5.688;2023-04-06T20:11:26;2.45;;;1.40;;
14770;SDS011;7477;45.222;5.688;2023-04-06T20:14:46;1.55;;;1.45;;
14770;SDS011;7477;45.222;5.688;2023-04-06T20:18:05;2.95;;;2.10;;
14770;SDS011;7477;45.222;5.688;2023-04-06T20:21:25;3.53;;;2.15;;
14770;SDS011;7477;45.222;5.688;2023-04-06T20:24:45;3.35;;;2.70;;
14770;SDS011;7477;45.222;5.688;2023-04-06T20:28:04;3.17;;;2.38;;